Time;durP1;ratioP1;P1;durP2;ratioP2;P2;SDS_P1;SDS_P2;PMS_P1;PMS_P2;Temp;Humidity;BMP_temperature;BMP_pressure;BME280_temperature;BME280_humidity;BME280_pressure;Samples;Min_cycle;Max_cycle;Signal;HPM_P1;HPM_P2
2021/08/01 00:01:08;;;;;;;13.75;9.48;;;;;;;17.01;74.92;96678.96;1834698;77;27283;-86
2021/08/01 00:03:35;;;;;;;14.38;9.53;;;;;;;16.92;75.05;96682.19;1835943;75;26407;-85
2021/08/01 00:06:02;;;;;;;18.25;9.75;;;;;;;16.93;75.16;96685.20;1826803;75;25783;-85
2021/08/01 00:08:28;;;;;;;14.05;9.20;;;;;;;16.97;75.20;96675.12;1842855;76;26762;-85
2021/08/01 00:10:58;;;;;;;16.52;11.57;;;;;;;16.96;75.17;96679.76;1816360;76;25720;-86
2021/08/01 00:13:25;;;;;;;15.78;10.60;;;;;;;16.92;75.19;96681.38;1823799;77;28611;-86
2021/08/01 00:15:51;;;;;;;14.70;9.95;;;;;;;16.89;75.29;96675.94;1828750;77;25882;-85
2021/08/01 00:18:18;;;;;;;20.05;10.20;;;;;;;16.84;75.23;96675.91;1811294;76;25774;-86
2021/08/01 00:20:45;;;;;;;15.72;10.45;;;;;;;16.77;75.39;96679.45;1829944;77;25683;-89
2021/08/01 00:23:12;;;;;;;13.60;10.05;;;;;;;16.74;75.68;96684.06;1830929;77;25628;-86
2021/08/01 00:25:39;;;;;;;15.45;10.25;;;;;;;16.73;75.64;96689.23;1822156;76;27359;-87
2021/08/01 00:28:05;;;;;;;17.00;10.40;;;;;;;16.76;75.87;96685.16;1826974;76;25805;-86
2021/08/01 00:30:32;;;;;;;25.70;11.20;;;;;;;16.76;75.89;96681.90;1812035;76;25814;-87
2021/08/01 00:32:59;;;;;;;18.77;10.85;;;;;;;16.77;75.89;96679.45;1839364;76;26444;-85
2021/08/01 00:35:27;;;;;;;16.80;11.88;;;;;;;16.80;75.94;96677.53;1828413;77;25245;-87
2021/08/01 00:37:54;;;;;;;16.45;10.98;;;;;;;16.80;75.91;96678.07;1826485;75;27349;-86
2021/08/01 00:40:22;;;;;;;18.57;12.23;;;;;;;16.81;75.96;96676.45;1830483;77;26288;-86
2021/08/01 00:42:50;;;;;;;17.48;11.83;;;;;;;16.81;75.91;96666.91;1809601;76;25790;-86
2021/08/01 00:45:18;;;;;;;18.30;11.18;;;;;;;16.79;75.94;96664.98;1833563;77;25739;-87
2021/08/01 00:47:45;;;;;;;19.42;11.45;;;;;;;16.68;75.84;96668.77;1827891;77;25715;-86
2021/08/01 00:50:14;;;;;;;16.17;11.20;;;;;;;16.59;76.09;96674.44;1827434;76;27416;-87
2021/08/01 00:52:40;;;;;;;16.30;10.95;;;;;;;16.50;76.21;96671.96;1827089;76;25547;-86
2021/08/01 00:55:10;;;;;;;21.93;12.18;;;;;;;16.49;76.45;96668.42;1827218;76;26327;-86
2021/08/01 00:57:37;;;;;;;20.45;11.50;;;;;;;16.54;76.58;96664.33;1831118;77;25741;-86
2021/08/01 01:03:00;;;;;;;16.90;11.85;;;;;;;16.61;76.51;96672.81;1794087;77;27386;-86
2021/08/01 01:05:31;;;;;;;18.57;12.05;;;;;;;16.53;76.47;96671.44;1820724;77;25692;-86
2021/08/01 01:08:33;;;;;;;16.40;11.28;;;;;;;16.49;76.62;96676.59;1831442;76;25778;-86
2021/08/01 01:11:02;;;;;;;20.82;11.75;;;;;;;16.48;76.58;96674.12;1831822;77;26504;-87
2021/08/01 01:13:34;;;;;;;24.50;13.05;;;;;;;16.44;76.75;96675.73;1823344;77;25747;-87
2021/08/01 01:16:01;;;;;;;16.63;11.27;;;;;;;16.41;76.73;96677.65;1804726;77;28805;-87
2021/08/01 01:18:38;;;;;;;20.65;12.03;;;;;;;16.43;76.84;96674.09;1809169;77;25686;-87
2021/08/01 01:21:27;;;;;;;16.60;11.70;;;;;;;16.42;76.81;96671.91;1798848;77;25711;-87
2021/08/01 01:24:11;;;;;;;20.30;10.85;;;;;;;16.39;76.82;96662.11;1822866;77;25761;-86
2021/08/01 01:27:04;;;;;;;18.80;10.68;;;;;;;16.36;76.83;96664.00;1827420;76;25836;-87
2021/08/01 01:29:49;;;;;;;16.95;11.25;;;;;;;16.29;76.86;96662.07;1835795;77;28413;-86
2021/08/01 01:32:21;;;;;;;15.70;10.40;;;;;;;16.27;77.11;96666.42;1833003;77;25766;-87
2021/08/01 01:35:04;;;;;;;18.65;9.63;;;;;;;16.30;77.18;96667.80;1850514;77;32432;-86
2021/08/01 01:37:32;;;;;;;12.28;9.28;;;;;;;16.34;77.22;96662.08;1824801;75;25700;-86
2021/08/01 01:40:01;;;;;;;18.80;9.68;;;;;;;16.37;77.14;96660.19;1858407;75;25739;-87
2021/08/01 01:42:31;;;;;;;14.15;9.60;;;;;;;16.38;77.05;96653.66;1847874;76;27368;-86
2021/08/01 01:45:01;;;;;;;16.42;10.18;;;;;;;16.41;76.96;96658.58;1829962;77;25719;-87
2021/08/01 01:47:29;;;;;;;15.28;10.23;;;;;;;16.43;76.88;96659.93;1825921;76;25664;-86
2021/08/01 01:49:58;;;;;;;13.80;9.75;;;;;;;16.34;76.74;96656.63;1828617;76;26303;-86
2021/08/01 01:52:28;;;;;;;13.80;8.93;;;;;;;16.29;76.85;96659.34;1824683;76;25223;-87
2021/08/01 01:54:56;;;;;;;15.40;9.73;;;;;;;16.29;76.83;96655.27;1833945;76;28233;-86
2021/08/01 01:57:23;;;;;;;15.93;9.65;;;;;;;16.28;76.81;96652.27;1829568;77;25811;-87
2021/08/01 01:59:49;;;;;;;18.98;9.15;;;;;;;16.27;76.82;96653.34;1829057;77;25680;-87
2021/08/01 02:02:16;;;;;;;14.80;9.73;;;;;;;16.23;76.80;96658.49;1811726;77;25696;-87
2021/08/01 02:04:43;;;;;;;15.63;9.15;;;;;;;16.21;76.80;96659.30;1806847;77;25628;-87
2021/08/01 02:07:10;;;;;;;14.47;9.05;;;;;;;16.21;76.88;96657.39;1817463;78;28876;-86
2021/08/01 02:10:03;;;;;;;13.85;8.58;;;;;;;16.23;76.81;96650.33;1802482;77;25712;-86
2021/08/01 02:12:54;;;;;;;10.60;7.58;;;;;;;16.22;76.77;96643.23;1799449;78;25629;-86
2021/08/01 02:15:29;;;;;;;13.43;7.75;;;;;;;16.21;76.77;96639.69;1815342;77;25786;-86
2021/08/01 02:18:06;;;;;;;11.95;7.42;;;;;;;16.19;76.79;96625.52;1808834;76;25919;-88
2021/08/01 02:20:45;;;;;;;11.75;7.33;;;;;;;16.11;76.82;96622.49;1828923;76;27360;-87
2021/08/01 02:23:20;;;;;;;12.82;8.05;;;;;;;15.98;76.99;96620.25;1828712;78;25777;-88
2021/08/01 02:25:47;;;;;;;13.83;9.20;;;;;;;15.83;77.25;96621.80;1825193;76;25738;-87
2021/08/01 02:28:15;;;;;;;11.40;8.30;;;;;;;15.79;77.55;96631.59;1823294;77;25757;-87
2021/08/01 02:30:43;;;;;;;12.13;8.58;;;;;;;15.78;77.66;96629.95;1811881;76;25696;-86
2021/08/01 02:33:11;;;;;;;13.58;8.95;;;;;;;15.84;77.82;96623.44;1829189;77;27435;-87
2021/08/01 02:35:38;;;;;;;12.65;8.45;;;;;;;15.90;77.87;96624.84;1850614;75;25713;-87
2021/08/01 02:38:06;;;;;;;9.05;7.20;;;;;;;15.94;77.85;96618.59;1832333;77;25760;-88
2021/08/01 02:40:37;;;;;;;14.28;9.18;;;;;;;15.97;77.81;96613.98;1832226;77;26400;-87
2021/08/01 02:43:09;;;;;;;14.15;8.45;;;;;;;16.00;77.77;96610.73;1821175;77;25705;-87
2021/08/01 02:45:36;;;;;;;10.82;7.78;;;;;;;16.01;77.77;96606.12;1820073;77;28146;-86
2021/08/01 02:48:06;;;;;;;8.83;7.45;;;;;;;16.04;77.74;96611.04;1834222;77;25730;-87
2021/08/01 02:50:36;;;;;;;16.12;7.97;;;;;;;16.05;77.77;96614.05;1815205;77;25692;-88
2021/08/01 02:53:10;;;;;;;14.43;7.00;;;;;;;16.05;77.78;96608.05;1788088;77;26495;-88
2021/08/01 02:55:38;;;;;;;12.28;7.20;;;;;;;16.00;77.61;96608.02;1821189;77;25808;-87
2021/08/01 02:58:07;;;;;;;11.00;7.37;;;;;;;15.92;77.60;96609.89;1825738;77;27326;-87
2021/08/01 03:00:36;;;;;;;9.38;6.97;;;;;;;15.91;77.75;96606.07;1809909;76;25858;-88
2021/08/01 03:03:05;;;;;;;11.88;7.35;;;;;;;15.92;77.88;96609.08;1830934;77;25718;-88
2021/08/01 03:05:32;;;;;;;8.48;7.30;;;;;;;15.94;77.94;96592.73;1820286;77;26625;-87
2021/08/01 03:07:59;;;;;;;11.95;7.85;;;;;;;15.97;78.04;96590.03;1786293;78;25781;-87
2021/08/01 03:10:26;;;;;;;11.48;7.12;;;;;;;16.01;78.12;96587.88;1775953;79;28145;-87
2021/08/01 03:12:53;;;;;;;13.78;7.60;;;;;;;16.05;78.21;96583.56;1780725;79;25736;-88
2021/08/01 03:15:19;;;;;;;15.78;7.80;;;;;;;16.09;78.26;96577.84;1768314;79;25790;-88
2021/08/01 03:17:46;;;;;;;10.32;7.20;;;;;;;16.13;78.31;96571.33;1753789;80;26531;-87
2021/08/01 03:20:13;;;;;;;10.65;7.72;;;;;;;16.15;78.35;96571.34;1746945;78;25670;-87
2021/08/01 03:22:39;;;;;;;10.45;7.67;;;;;;;16.25;78.38;96584.70;1777245;79;27508;-87
2021/08/01 03:25:07;;;;;;;10.65;7.28;;;;;;;16.25;78.44;96585.53;1760924;78;25776;-87
2021/08/01 03:27:33;;;;;;;12.47;7.47;;;;;;;16.26;78.49;96580.91;1773993;79;25847;-87
2021/08/01 03:30:00;;;;;;;10.90;6.75;;;;;;;16.30;78.54;96576.56;1774918;79;25653;-87
2021/08/01 03:32:26;;;;;;;13.68;7.53;;;;;;;16.33;78.52;96576.02;1773415;79;25786;-87
2021/08/01 03:34:53;;;;;;;12.93;7.65;;;;;;;16.33;78.61;96578.19;1747193;80;27414;-86
2021/08/01 03:37:26;;;;;;;13.00;7.72;;;;;;;16.36;78.61;96572.76;1754694;80;25755;-86
2021/08/01 03:39:53;;;;;;;14.87;8.13;;;;;;;16.38;78.73;96566.50;1742378;80;25709;-87
2021/08/01 03:42:20;;;;;;;13.10;7.30;;;;;;;16.37;78.72;96565.69;1750560;81;25729;-87
2021/08/01 03:44:47;;;;;;;11.28;7.33;;;;;;;16.37;78.76;96557.52;1745099;81;26621;-86
2021/08/01 03:47:14;;;;;;;10.58;7.33;;;;;;;16.41;78.76;96557.80;1750573;81;27414;-87
2021/08/01 03:49:44;;;;;;;12.55;7.28;;;;;;;16.46;78.75;96552.35;1753776;79;26380;-87
2021/08/01 03:52:12;;;;;;;9.10;6.65;;;;;;;16.46;78.79;96545.55;1756970;80;26316;-87
2021/08/01 03:54:39;;;;;;;11.48;7.62;;;;;;;16.48;78.74;96544.73;1743062;79;25734;-87
2021/08/01 03:57:06;;;;;;;11.43;8.18;;;;;;;16.50;78.71;96549.38;1750448;79;25683;-87
2021/08/01 03:59:36;;;;;;;16.25;7.83;;;;;;;16.52;78.71;96539.03;1757616;81;27420;-87
2021/08/01 04:02:04;;;;;;;10.48;7.10;;;;;;;16.56;78.66;96529.21;1756720;79;25752;-87
2021/08/01 04:04:30;;;;;;;10.48;7.35;;;;;;;16.58;78.70;96523.77;1760749;81;25833;-87
2021/08/01 04:06:57;;;;;;;9.85;7.35;;;;;;;16.61;78.75;96527.87;1773722;79;26381;-87
2021/08/01 04:09:24;;;;;;;8.00;7.22;;;;;;;16.60;78.78;96531.68;1758028;80;25788;-86
2021/08/01 04:11:50;;;;;;;12.58;7.03;;;;;;;16.60;78.78;96538.48;1757560;80;28251;-87
2021/08/01 04:14:17;;;;;;;10.53;7.40;;;;;;;16.60;78.79;96546.66;1772813;80;25659;-88
2021/08/01 04:16:43;;;;;;;11.97;8.48;;;;;;;16.63;78.77;96546.16;1774587;78;25749;-86
2021/08/01 04:19:13;;;;;;;13.32;7.15;;;;;;;16.68;78.77;96545.33;1776416;79;26454;-87
2021/08/01 04:21:43;;;;;;;11.30;6.90;;;;;;;16.65;78.78;96538.54;1760427;79;26013;-88
2021/08/01 04:24:10;;;;;;;10.08;7.67;;;;;;;16.68;78.81;96521.62;1763622;80;28234;-88
2021/08/01 04:26:37;;;;;;;11.85;8.03;;;;;;;16.69;78.79;96517.81;1819443;77;25819;-88
2021/08/01 04:29:05;;;;;;;11.30;8.00;;;;;;;16.72;78.88;96518.64;1828593;77;25807;-87
2021/08/01 04:31:32;;;;;;;11.18;7.65;;;;;;;16.76;78.87;96516.20;1826532;77;26625;-87
2021/08/01 04:33:58;;;;;;;12.58;8.18;;;;;;;16.79;78.94;96519.17;1770240;78;25759;-87
2021/08/01 04:36:25;;;;;;;13.95;9.15;;;;;;;16.82;78.89;96519.19;1829069;76;27393;-87
2021/08/01 04:38:52;;;;;;;20.40;9.68;;;;;;;16.85;78.92;96520.83;1842157;77;25453;-87
2021/08/01 04:41:19;;;;;;;12.75;8.83;;;;;;;16.90;78.87;96522.17;1827619;77;25758;-87
2021/08/01 04:43:46;;;;;;;14.18;9.30;;;;;;;16.97;78.76;96526.55;1825673;77;25740;-87
2021/08/01 04:46:13;;;;;;;13.38;9.33;;;;;;;17.03;78.87;96533.63;1824029;77;25796;-87
2021/08/01 04:48:40;;;;;;;12.13;8.95;;;;;;;17.06;78.74;96531.72;1806560;76;27430;-87
2021/08/01 04:51:07;;;;;;;10.82;9.60;;;;;;;17.10;78.71;96538.27;1804619;77;25816;-87
2021/08/01 04:53:33;;;;;;;16.35;8.98;;;;;;;17.14;78.66;96538.01;1830405;77;25750;-86
2021/08/01 04:56:00;;;;;;;13.58;9.58;;;;;;;17.16;78.63;96543.98;1833601;77;25713;-86
2021/08/01 04:58:26;;;;;;;9.45;8.05;;;;;;;17.18;78.70;96547.26;1830985;76;25671;-86
2021/08/01 05:00:53;;;;;;;12.43;8.93;;;;;;;17.17;78.68;96553.80;1824543;77;27466;-86
2021/08/01 05:03:20;;;;;;;10.10;8.35;;;;;;;17.21;78.72;96556.27;1840903;77;25828;-86
2021/08/01 05:05:47;;;;;;;10.00;8.88;;;;;;;17.27;78.76;96556.52;1817688;77;25803;-87
2021/08/01 05:08:13;;;;;;;13.48;9.28;;;;;;;17.32;78.79;96566.06;1833231;77;25836;-87
2021/08/01 05:10:40;;;;;;;13.28;9.68;;;;;;;17.38;78.93;96570.44;1807725;77;25656;-87
2021/08/01 05:13:07;;;;;;;17.67;10.70;;;;;;;17.44;79.01;96577.52;1829151;77;27344;-87
2021/08/01 05:15:34;;;;;;;18.82;11.28;;;;;;;17.50;79.00;96587.88;1820578;76;25955;-86
2021/08/01 05:18:03;;;;;;;17.70;12.82;;;;;;;17.56;79.12;96586.77;1825565;77;25679;-85
2021/08/01 05:20:30;;;;;;;12.68;10.53;;;;;;;17.61;79.04;96579.41;1820214;76;25783;-86
2021/08/01 05:22:56;;;;;;;11.35;9.23;;;;;;;17.66;79.05;96583.23;1794503;76;26267;-86
2021/08/01 05:25:23;;;;;;;13.32;8.95;;;;;;;17.68;78.97;96571.50;1797136;77;27344;-85
2021/08/01 05:27:50;;;;;;;9.28;8.28;;;;;;;17.73;78.86;96576.95;1815798;76;25752;-86
2021/08/01 05:30:16;;;;;;;12.93;8.60;;;;;;;17.74;78.88;96571.77;1813910;76;25719;-87
2021/08/01 05:32:43;;;;;;;9.28;7.70;;;;;;;17.74;78.92;96566.31;1817690;77;25705;-87
2021/08/01 05:35:09;;;;;;;11.30;7.65;;;;;;;17.74;79.07;96558.13;1817487;77;25680;-87
2021/08/01 05:37:36;;;;;;;11.75;8.73;;;;;;;17.78;79.10;96568.73;1818278;77;27395;-87
2021/08/01 05:40:03;;;;;;;13.48;9.48;;;;;;;17.84;79.11;96577.20;1827559;76;25847;-87
2021/08/01 05:42:35;;;;;;;12.78;8.68;;;;;;;17.90;79.09;96574.70;1829004;77;25647;-87
2021/08/01 05:45:01;;;;;;;12.25;8.35;;;;;;;17.94;78.89;96576.61;1818986;76;25701;-86
2021/08/01 05:47:28;;;;;;;10.68;8.53;;;;;;;17.99;78.71;96571.69;1817818;77;25787;-87
2021/08/01 05:49:54;;;;;;;12.07;8.60;;;;;;;18.01;78.72;96572.20;1824260;76;28499;-86
2021/08/01 05:52:21;;;;;;;11.03;7.90;;;;;;;17.99;78.67;96562.92;1815796;76;26419;-87
2021/08/01 05:54:48;;;;;;;12.68;8.55;;;;;;;18.03;78.83;96557.73;1830155;76;26120;-88
2021/08/01 05:57:15;;;;;;;9.88;8.20;;;;;;;18.09;78.96;96544.34;1841218;76;25760;-86
2021/08/01 05:59:41;;;;;;;10.03;9.00;;;;;;;18.14;79.13;96544.30;1836740;77;25706;-87
2021/08/01 06:02:11;;;;;;;12.10;8.93;;;;;;;18.21;79.11;96539.91;1822052;76;27331;-86
2021/08/01 06:04:37;;;;;;;12.10;8.08;;;;;;;18.28;79.10;96551.34;1831777;77;25679;-85
2021/08/01 06:07:06;;;;;;;10.23;8.85;;;;;;;18.33;79.01;96545.31;1827313;76;26222;-86
2021/08/01 06:09:32;;;;;;;11.30;8.90;;;;;;;18.41;78.99;96545.81;1831149;77;26197;-87
2021/08/01 06:11:59;;;;;;;12.53;8.18;;;;;;;18.50;79.00;96549.58;1831869;76;25715;-85
2021/08/01 06:14:26;;;;;;;15.45;8.48;;;;;;;18.56;78.94;96547.09;1831172;77;28223;-85
2021/08/01 06:16:52;;;;;;;10.25;8.85;;;;;;;18.61;78.92;96543.80;1827002;76;25915;-88
2021/08/01 06:19:19;;;;;;;11.20;8.60;;;;;;;18.67;78.86;96539.13;1821764;76;25703;-84
2021/08/01 06:21:46;;;;;;;13.22;8.83;;;;;;;18.74;78.92;96536.06;1821181;77;25831;-87
2021/08/01 06:24:12;;;;;;;10.28;8.20;;;;;;;18.82;78.75;96532.20;1820270;77;25758;-87
2021/08/01 06:26:39;;;;;;;9.73;8.63;;;;;;;18.86;78.55;96534.60;1829518;77;27247;-86
2021/08/01 06:29:05;;;;;;;14.87;8.48;;;;;;;18.90;78.46;96537.05;1832036;77;25827;-88
2021/08/01 06:31:32;;;;;;;13.68;9.13;;;;;;;18.96;78.42;96534.52;1799272;77;25728;-84
2021/08/01 06:33:58;;;;;;;11.05;9.38;;;;;;;19.03;78.30;96537.77;1824836;77;27016;-83
2021/08/01 06:36:25;;;;;;;10.48;9.15;;;;;;;19.08;78.15;96545.67;1787588;79;25265;-87
2021/08/01 06:38:52;;;;;;;12.10;9.35;;;;;;;19.13;78.00;96542.88;1807988;76;27359;-88
2021/08/01 06:41:18;;;;;;;13.18;9.03;;;;;;;19.17;77.94;96537.11;1812860;76;25830;-85
2021/08/01 06:43:45;;;;;;;11.57;9.20;;;;;;;19.17;78.15;96539.29;1811512;77;25873;-86
2021/08/01 06:46:12;;;;;;;10.68;8.93;;;;;;;19.21;78.08;96546.35;1815800;76;25752;-89
2021/08/01 06:48:39;;;;;;;13.68;9.95;;;;;;;19.22;77.92;96545.25;1813442;77;25826;-87
2021/08/01 06:51:05;;;;;;;13.28;9.08;;;;;;;19.18;78.04;96536.00;1801021;77;28313;-85
2021/08/01 06:53:32;;;;;;;14.98;9.60;;;;;;;19.19;78.17;96540.37;1800491;77;25685;-87
2021/08/01 06:55:59;;;;;;;11.80;9.63;;;;;;;19.25;78.21;96545.50;1794393;77;25247;-85
2021/08/01 06:58:25;;;;;;;11.90;9.55;;;;;;;19.33;78.14;96549.53;1789173;77;25737;-87
2021/08/01 07:00:53;;;;;;;13.45;9.13;;;;;;;19.38;78.00;96550.31;1768964;77;26229;-84
2021/08/01 07:03:20;;;;;;;11.20;8.78;;;;;;;19.43;77.94;96550.83;1803988;77;27364;-86
2021/08/01 07:05:46;;;;;;;13.70;8.73;;;;;;;19.48;77.72;96563.63;1767313;79;25832;-85
2021/08/01 07:08:13;;;;;;;11.33;9.25;;;;;;;19.49;77.46;96559.27;1769073;79;26065;-87
2021/08/01 07:10:40;;;;;;;11.95;9.03;;;;;;;19.46;77.27;96562.55;1769822;79;25898;-86
2021/08/01 07:13:08;;;;;;;11.43;9.08;;;;;;;19.49;77.42;96566.11;1768332;79;25686;-87
2021/08/01 07:15:37;;;;;;;12.05;9.00;;;;;;;19.51;77.48;96554.33;1775452;79;27389;-88
2021/08/01 07:18:05;;;;;;;8.88;8.00;;;;;;;19.51;77.44;96559.80;1766300;79;25933;-87
2021/08/01 07:20:33;;;;;;;14.18;8.78;;;;;;;19.53;77.55;96564.98;1767501;79;25790;-87
2021/08/01 07:22:59;;;;;;;12.20;8.93;;;;;;;19.54;77.69;96562.52;1797322;77;25768;-88
2021/08/01 07:25:27;;;;;;;10.10;8.15;;;;;;;19.54;77.59;96570.73;1784394;77;25764;-87
2021/08/01 07:27:55;;;;;;;12.13;8.63;;;;;;;19.56;77.66;96561.10;1797410;77;27414;-88
2021/08/01 07:30:22;;;;;;;13.72;9.10;;;;;;;19.55;77.63;96556.77;1781120;77;26463;-86
2021/08/01 07:32:48;;;;;;;10.43;9.28;;;;;;;19.57;77.76;96569.58;1769471;79;25772;-85
2021/08/01 07:35:15;;;;;;;9.13;8.18;;;;;;;19.58;77.73;96553.42;1775462;77;26605;-88
2021/08/01 07:37:42;;;;;;;9.60;8.60;;;;;;;19.60;77.80;96543.00;1836730;77;26023;-87
2021/08/01 07:40:09;;;;;;;11.97;9.13;;;;;;;19.59;77.78;96550.95;1824981;76;27458;-87
2021/08/01 07:42:35;;;;;;;12.28;8.50;;;;;;;19.60;77.73;96546.30;1827026;77;25900;-84
2021/08/01 07:45:04;;;;;;;14.28;9.20;;;;;;;19.61;77.80;96532.32;1815805;76;26330;-86
2021/08/01 07:47:34;;;;;;;11.53;8.28;;;;;;;19.64;77.91;96529.56;1818782;77;25960;-88
2021/08/01 07:50:02;;;;;;;9.40;8.05;;;;;;;19.66;77.95;96495.87;1835144;77;25712;-85
2021/08/01 07:52:29;;;;;;;13.93;9.43;;;;;;;19.65;77.93;96522.43;1819958;77;27392;-87
2021/08/01 07:54:56;;;;;;;10.43;9.03;;;;;;;19.62;77.98;96512.61;1818679;76;25826;-87
2021/08/01 07:57:29;;;;;;;9.78;8.80;;;;;;;19.61;77.88;96501.39;1834506;77;25906;-87
2021/08/01 07:59:58;;;;;;;11.08;9.03;;;;;;;19.62;77.91;96489.34;1827327;76;26420;-89
2021/08/01 08:02:26;;;;;;;10.63;9.03;;;;;;;19.62;77.93;96492.89;1821396;76;25877;-90
2021/08/01 08:04:53;;;;;;;11.30;9.40;;;;;;;19.64;78.07;96494.79;1823678;76;27375;-92
2021/08/01 08:07:20;;;;;;;10.20;8.58;;;;;;;19.64;78.16;96463.86;1827722;77;26152;-93
2021/08/01 08:09:48;;;;;;;13.25;8.38;;;;;;;19.64;78.34;96451.54;1827572;77;25798;-91
2021/08/01 08:12:15;;;;;;;11.25;9.15;;;;;;;19.64;78.36;96430.45;1774159;77;26512;-92
2021/08/01 08:14:41;;;;;;;13.78;8.80;;;;;;;19.67;78.44;96407.98;1823110;76;25756;-92
2021/08/01 08:17:08;;;;;;;9.78;8.78;;;;;;;19.69;78.53;96389.31;1834291;77;28079;-90
2021/08/01 08:19:36;;;;;;;10.00;7.95;;;;;;;19.72;78.54;96357.80;1818867;76;26441;-91
2021/08/01 08:22:03;;;;;;;11.25;8.45;;;;;;;19.73;78.50;96291.80;1829696;77;25759;-91
2021/08/01 08:24:30;;;;;;;9.48;8.55;;;;;;;19.70;78.33;96275.95;1797637;77;25847;-88
2021/08/01 08:26:57;;;;;;;9.05;8.05;;;;;;;19.63;78.08;96261.02;1825632;77;25315;-91
2021/08/01 08:29:23;;;;;;;12.20;8.85;;;;;;;19.56;78.14;96223.06;1826258;76;27381;-91
2021/08/01 08:31:52;;;;;;;11.75;8.28;;;;;;;19.54;78.22;96248.56;1822040;76;25724;-93
2021/08/01 08:34:20;;;;;;;11.10;8.45;;;;;;;19.53;78.27;96272.94;1843798;76;25806;-92
2021/08/01 08:36:50;;;;;;;13.43;8.08;;;;;;;19.55;78.25;96307.67;1731766;80;26338;-92
2021/08/01 08:39:23;;;;;;;10.40;8.68;;;;;;;19.59;78.39;96319.64;1779082;78;25815;-92
2021/08/01 08:41:50;;;;;;;9.83;8.73;;;;;;;19.65;78.29;96325.88;1777604;78;28025;-93
2021/08/01 08:44:18;;;;;;;10.20;8.88;;;;;;;19.72;78.43;96328.50;1777194;78;25721;-92
2021/08/01 08:46:47;;;;;;;13.22;9.05;;;;;;;19.79;78.26;96336.36;1751009;80;25745;-90
2021/08/01 08:49:15;;;;;;;11.25;9.73;;;;;;;19.86;78.28;96355.14;1770130;78;26312;-92
2021/08/01 08:51:45;;;;;;;11.22;9.60;;;;;;;19.93;78.27;96380.23;1770387;79;25762;-92
2021/08/01 08:54:15;;;;;;;15.15;9.03;;;;;;;19.96;78.29;96398.26;1782822;78;27387;-90
2021/08/01 08:56:44;;;;;;;11.68;8.43;;;;;;;19.98;78.17;96418.52;1780574;78;26453;-93
2021/08/01 08:59:12;;;;;;;10.25;8.53;;;;;;;20.00;78.06;96442.31;1745944;80;25821;-91
2021/08/01 09:01:38;;;;;;;11.30;8.03;;;;;;;20.01;77.85;96478.19;1818074;76;26462;-90
2021/08/01 09:04:06;;;;;;;8.58;7.75;;;;;;;20.02;77.75;96508.59;1838370;76;25834;-90
2021/08/01 09:06:33;;;;;;;9.75;7.83;;;;;;;19.99;77.67;96495.47;1835983;76;27337;-89
2021/08/01 09:08:59;;;;;;;15.30;8.33;;;;;;;19.94;77.69;96451.14;1828555;76;25788;-90
2021/08/01 09:11:26;;;;;;;10.53;7.70;;;;;;;19.87;77.75;96439.75;1826751;78;25732;-94
2021/08/01 09:13:56;;;;;;;7.65;6.53;;;;;;;19.80;77.69;96472.72;1828485;77;25951;-88
2021/08/01 09:16:46;;;;;;;10.38;7.50;;;;;;;19.75;77.88;96507.25;1806438;77;25899;-89
2021/08/01 09:19:42;;;;;;;11.05;7.40;;;;;;;19.74;77.88;96538.48;1829213;77;27426;-88
2021/08/01 09:22:22;;;;;;;10.08;6.78;;;;;;;19.66;77.88;96592.51;1810568;77;25844;-91
2021/08/01 09:24:51;;;;;;;6.17;5.63;;;;;;;19.63;77.81;96605.95;1766373;77;25789;-89
2021/08/01 09:27:34;;;;;;;5.97;5.17;;;;;;;19.60;77.43;96601.86;1827105;77;25817;-87
2021/08/01 09:30:03;;;;;;;5.42;4.90;;;;;;;19.59;77.15;96600.77;1807742;78;25696;-88
2021/08/01 09:32:35;;;;;;;7.42;5.67;;;;;;;19.57;76.95;96638.02;1827101;77;27449;-84
2021/08/01 09:35:01;;;;;;;6.30;5.70;;;;;;;19.55;76.99;96648.46;1797257;76;25705;-84
2021/08/01 09:37:36;;;;;;;6.35;5.75;;;;;;;19.54;76.92;96658.32;1824155;76;26498;-85
2021/08/01 09:40:13;;;;;;;10.03;5.50;;;;;;;19.50;76.88;96670.38;1818818;77;26309;-85
2021/08/01 09:42:46;;;;;;;5.37;4.87;;;;;;;19.48;77.10;96673.92;1819376;77;25258;-87
2021/08/01 09:45:22;;;;;;;6.37;5.45;;;;;;;19.46;76.98;96672.02;1821228;76;27382;-86
2021/08/01 09:47:50;;;;;;;6.53;5.08;;;;;;;19.46;77.09;96668.46;1842130;77;25716;-85
2021/08/01 09:50:18;;;;;;;5.83;5.25;;;;;;;19.48;77.09;96662.97;1852867;76;25729;-87
2021/08/01 09:52:45;;;;;;;8.08;5.78;;;;;;;19.49;77.04;96641.38;1848491;76;26511;-88
2021/08/01 09:55:20;;;;;;;7.67;6.10;;;;;;;19.53;77.11;96638.89;1824721;77;25294;-87
2021/08/01 09:57:54;;;;;;;8.95;7.45;;;;;;;19.45;76.99;96632.06;1828181;76;27415;-89
2021/08/01 10:00:23;;;;;;;9.93;8.83;;;;;;;19.34;77.11;96618.20;1838418;77;25841;-90
2021/08/01 10:02:50;;;;;;;8.25;6.87;;;;;;;19.30;77.61;96593.35;1835374;76;25818;-90
2021/08/01 10:05:22;;;;;;;7.50;6.03;;;;;;;19.31;77.89;96551.77;1793529;77;25728;-84
2021/08/01 10:07:52;;;;;;;8.33;6.17;;;;;;;19.32;78.08;96475.41;1800559;78;25786;-87
2021/08/01 10:10:25;;;;;;;6.40;5.33;;;;;;;19.36;78.21;96452.63;1815508;78;27413;-88
2021/08/01 10:12:57;;;;;;;6.03;5.08;;;;;;;19.38;78.16;96469.58;1815492;77;25682;-87
2021/08/01 10:15:23;;;;;;;8.08;6.03;;;;;;;19.39;78.24;96453.98;1773946;79;25823;-89
2021/08/01 10:17:49;;;;;;;7.92;5.25;;;;;;;19.45;78.44;96462.38;1816591;78;27053;-87
2021/08/01 10:20:16;;;;;;;7.72;5.72;;;;;;;19.56;78.65;96477.61;1809464;78;25722;-88
2021/08/01 10:22:44;;;;;;;6.47;5.03;;;;;;;19.72;78.66;96481.00;1839098;76;27403;-89
2021/08/01 10:25:23;;;;;;;5.78;5.15;;;;;;;19.90;78.64;96467.11;1842135;76;26457;-90
2021/08/01 10:27:55;;;;;;;5.60;3.85;;;;;;;20.17;79.02;96457.68;1820745;76;25862;-88
2021/08/01 10:30:27;;;;;;;4.22;3.80;;;;;;;20.52;79.00;96455.59;1851450;76;25817;-93
2021/08/01 10:32:59;;;;;;;4.30;3.65;;;;;;;20.74;78.62;96467.56;1850720;77;25799;-89
2021/08/01 10:35:28;;;;;;;3.55;3.25;;;;;;;20.98;77.95;96448.23;1829128;75;27358;-93
2021/08/01 10:38:02;;;;;;;3.75;2.85;;;;;;;21.06;77.16;96433.82;1801855;77;25702;-85
2021/08/01 10:40:35;;;;;;;5.53;3.10;;;;;;;20.99;76.43;96436.16;1829070;77;26367;-87
2021/08/01 10:43:15;;;;;;;2.87;2.52;;;;;;;20.93;76.07;96419.52;1842808;76;25680;-91
2021/08/01 10:45:45;;;;;;;2.50;2.30;;;;;;;20.80;75.61;96418.91;1825835;76;25725;-94
2021/08/01 10:48:15;;;;;;;4.12;2.55;;;;;;;20.66;75.55;96419.42;1807767;78;27378;-90
2021/08/01 10:50:43;;;;;;;3.10;2.47;;;;;;;20.56;75.51;96420.41;1824438;77;25709;-87
2021/08/01 10:53:25;;;;;;;2.90;2.70;;;;;;;20.48;75.50;96417.80;1823116;77;26360;-87
2021/08/01 10:55:53;;;;;;;;;;;;;;;20.44;75.67;96404.42;1824060;77;26306;-86
2021/08/01 10:58:21;;;;;;;3.10;2.75;;;;;;;20.42;75.98;96390.19;1830245;77;25808;-89
2021/08/01 11:01:09;;;;;;;4.05;3.40;;;;;;;20.42;76.25;96390.19;1835085;77;28233;-91
2021/08/01 11:03:39;;;;;;;4.58;3.37;;;;;;;20.46;76.41;96373.42;1829843;76;26588;-87
2021/08/01 11:06:26;;;;;;;2.40;2.20;;;;;;;20.42;76.39;96376.48;1829187;77;25791;-86
2021/08/01 11:09:14;;;;;;;3.17;2.40;;;;;;;20.54;76.79;96384.25;1828527;77;26753;-87
2021/08/01 11:11:45;;;;;;;2.50;2.25;;;;;;;20.76;76.83;96393.22;1823665;77;25246;-86
2021/08/01 11:14:41;;;;;;;2.60;2.27;;;;;;;20.97;76.60;96386.81;1814597;77;27291;-86
2021/08/01 11:17:07;;;;;;;5.20;2.65;;;;;;;21.01;76.03;96386.47;1796828;77;25891;-87
2021/08/01 11:19:36;;;;;;;3.98;2.65;;;;;;;21.07;76.01;96394.30;1829619;77;25291;-87
2021/08/01 11:22:03;;;;;;;3.35;2.33;;;;;;;21.15;75.83;96399.62;1818541;76;25771;-86
2021/08/01 11:24:30;;;;;;;4.35;2.22;;;;;;;21.17;75.90;96383.68;1834482;76;25636;-87
2021/08/01 11:27:09;;;;;;;2.67;2.47;;;;;;;21.29;76.16;96379.09;1835183;76;27344;-86
2021/08/01 11:30:02;;;;;;;2.50;2.22;;;;;;;21.37;76.01;96367.42;1825153;78;25742;-85
2021/08/01 11:32:40;;;;;;;2.95;2.27;;;;;;;21.46;75.46;96366.40;1837098;76;25218;-85
2021/08/01 11:35:21;;;;;;;2.30;2.10;;;;;;;21.51;75.13;96358.04;1758104;79;26546;-86
2021/08/01 11:38:07;;;;;;;3.20;2.17;;;;;;;21.49;74.34;96352.03;1800788;78;25904;-86
2021/08/01 11:40:45;;;;;;;2.95;2.52;;;;;;;21.51;74.39;96351.73;1805859;77;27376;-87